createdAt,value
2018-10-03T00:00:49.157Z,14.10
2018-10-03T00:03:16.776Z,14.10
2018-10-03T00:05:44.394Z,14.10
2018-10-03T00:08:11.977Z,14.10
2018-10-03T00:10:39.829Z,14.10
2018-10-03T00:13:07.385Z,14.10
2018-10-03T00:15:34.978Z,14.10
2018-10-03T00:18:02.545Z,14.20
2018-10-03T00:20:30.573Z,14.10
2018-10-03T00:22:58.169Z,14.10
2018-10-03T00:25:26.361Z,14.10
2018-10-03T00:27:53.981Z,14.10
2018-10-03T00:30:21.589Z,14.10
2018-10-03T00:32:49.142Z,14.10
2018-10-03T00:35:16.862Z,14.00
2018-10-03T00:37:44.717Z,14.10
2018-10-03T00:40:12.309Z,14.10
2018-10-03T00:42:39.889Z,14.10
2018-10-03T00:45:07.562Z,14.10
2018-10-03T00:47:35.184Z,14.00
2018-10-03T00:50:02.821Z,14.10
2018-10-03T00:52:30.397Z,14.10
2018-10-03T00:54:58.601Z,14.10
2018-10-03T00:57:29.385Z,14.10
2018-10-03T00:59:56.973Z,14.10
2018-10-03T01:02:24.598Z,14.00
2018-10-03T01:04:52.192Z,14.00
2018-10-03T01:07:19.748Z,14.10
2018-10-03T01:09:47.589Z,14.00
2018-10-03T01:12:15.142Z,14.00
2018-10-03T01:14:42.801Z,14.00
2018-10-03T01:17:10.349Z,14.00
2018-10-03T01:19:37.942Z,14.00
2018-10-03T01:22:05.525Z,14.00
2018-10-03T01:24:33.244Z,14.00
2018-10-03T01:27:00.798Z,14.00
2018-10-03T01:29:29.185Z,14.00
2018-10-03T01:32:08.312Z,14.00
2018-10-03T01:34:36.701Z,13.90
2018-10-03T01:37:04.325Z,14.00
2018-10-03T01:39:31.988Z,14.00
2018-10-03T01:41:59.545Z,14.00
2018-10-03T01:44:27.376Z,14.00
2018-10-03T01:46:55.277Z,13.90
2018-10-03T01:49:22.834Z,13.90
2018-10-03T01:51:50.415Z,13.90
2018-10-03T01:54:17.976Z,13.80
2018-10-03T01:56:45.549Z,13.80
2018-10-03T01:59:13.103Z,13.80
2018-10-03T02:01:40.697Z,13.80
2018-10-03T02:04:09.156Z,13.80
2018-10-03T02:06:36.714Z,13.80
2018-10-03T02:09:05.598Z,13.70
2018-10-03T02:11:33.202Z,13.70
2018-10-03T02:14:00.765Z,13.70
2018-10-03T02:16:28.440Z,13.60
2018-10-03T02:18:56.093Z,13.50
2018-10-03T02:21:23.695Z,13.50
2018-10-03T02:23:51.244Z,13.40
2018-10-03T02:26:18.809Z,13.40
2018-10-03T02:28:46.415Z,13.30
2018-10-03T02:31:14.017Z,13.30
2018-10-03T02:33:41.583Z,13.20
2018-10-03T02:36:09.174Z,13.20
2018-10-03T02:38:36.897Z,13.20
2018-10-03T02:41:04.625Z,13.20
2018-10-03T02:43:32.464Z,13.20
2018-10-03T02:46:00.067Z,13.30
2018-10-03T02:48:27.616Z,13.20
2018-10-03T02:50:55.215Z,13.20
2018-10-03T02:53:22.764Z,13.30
2018-10-03T02:55:50.365Z,13.30
2018-10-03T02:58:17.981Z,13.30
2018-10-03T03:00:45.581Z,13.30
2018-10-03T03:03:13.233Z,13.30
2018-10-03T03:05:40.792Z,13.30
2018-10-03T03:08:08.351Z,13.30
2018-10-03T03:10:36.521Z,13.30
2018-10-03T03:13:04.209Z,13.30
2018-10-03T03:15:31.897Z,13.20
2018-10-03T03:17:59.504Z,13.30
2018-10-03T03:20:27.064Z,13.20
2018-10-03T03:22:54.653Z,13.20
2018-10-03T03:25:22.329Z,13.20
2018-10-03T03:27:50.420Z,13.30
2018-10-03T03:30:18.005Z,13.30
2018-10-03T03:32:45.606Z,13.30
2018-10-03T03:35:13.153Z,13.30
2018-10-03T03:37:40.769Z,13.30
2018-10-03T03:40:08.329Z,13.30
2018-10-03T03:42:35.923Z,13.20
2018-10-03T03:45:03.551Z,13.20
2018-10-03T03:47:31.146Z,13.20
2018-10-03T03:49:58.708Z,13.10
2018-10-03T03:52:26.289Z,13.10
2018-10-03T03:54:53.856Z,13.10
2018-10-03T03:57:21.461Z,13.00
2018-10-03T03:59:49.047Z,13.00
2018-10-03T04:02:16.856Z,12.90
2018-10-03T04:04:44.529Z,12.90
2018-10-03T04:07:12.097Z,12.80
2018-10-03T04:09:39.693Z,12.80
2018-10-03T04:12:07.281Z,12.60
2018-10-03T04:14:35.085Z,12.70
2018-10-03T04:17:02.877Z,12.60
2018-10-03T04:19:30.488Z,12.50
2018-10-03T04:21:58.086Z,12.50
2018-10-03T04:24:25.667Z,12.40
2018-10-03T04:26:53.237Z,12.40
2018-10-03T04:29:20.823Z,12.40
2018-10-03T04:31:48.409Z,12.40
2018-10-03T04:34:16.010Z,12.50
2018-10-03T04:36:43.633Z,12.40
2018-10-03T04:39:11.217Z,12.40
2018-10-03T04:41:38.810Z,12.40
2018-10-03T04:44:06.421Z,12.40
2018-10-03T04:46:34.164Z,12.50
2018-10-03T04:49:01.749Z,12.50
2018-10-03T04:51:29.359Z,12.50
2018-10-03T04:53:56.896Z,12.50
2018-10-03T04:56:27.147Z,12.50
2018-10-03T04:58:54.841Z,12.40
2018-10-03T05:01:25.274Z,12.50
2018-10-03T05:03:52.867Z,12.40
2018-10-03T05:06:20.498Z,12.40
2018-10-03T05:08:48.140Z,12.40
2018-10-03T05:11:15.828Z,12.30
2018-10-03T05:13:43.457Z,12.30
2018-10-03T05:16:10.997Z,12.30
2018-10-03T05:18:38.697Z,12.30
2018-10-03T05:21:06.273Z,12.30
2018-10-03T05:23:33.886Z,12.40
2018-10-03T05:26:01.869Z,12.40
2018-10-03T05:28:29.441Z,12.40
2018-10-03T05:30:57.066Z,12.40
2018-10-03T05:33:24.705Z,12.40
2018-10-03T05:35:52.272Z,12.40
2018-10-03T05:38:19.949Z,12.40
2018-10-03T05:40:47.709Z,12.40
2018-10-03T05:43:15.320Z,12.40
2018-10-03T05:45:42.877Z,12.40
2018-10-03T05:48:10.422Z,12.40
2018-10-03T05:50:38.114Z,12.40
2018-10-03T05:53:05.662Z,12.40
2018-10-03T05:55:33.229Z,12.50
2018-10-03T05:58:00.797Z,12.40
2018-10-03T06:00:28.386Z,12.40
2018-10-03T06:02:56.048Z,12.40
2018-10-03T06:05:23.574Z,12.40
2018-10-03T06:07:51.135Z,12.40
2018-10-03T06:10:18.689Z,12.40
2018-10-03T06:12:46.534Z,12.40
2018-10-03T06:15:14.123Z,12.50
2018-10-03T06:17:41.814Z,12.50
2018-10-03T06:20:09.397Z,12.50
2018-10-03T06:22:37.789Z,12.50
2018-10-03T06:25:05.469Z,12.50
2018-10-03T06:27:33.058Z,12.60
2018-10-03T06:30:00.649Z,12.60
2018-10-03T06:32:28.205Z,12.60
2018-10-03T06:34:55.816Z,12.60
2018-10-03T06:37:23.354Z,12.60
2018-10-03T06:39:51.028Z,12.50
2018-10-03T06:42:18.590Z,12.50
2018-10-03T06:44:46.545Z,12.50
2018-10-03T06:47:14.178Z,12.60
2018-10-03T06:49:41.758Z,12.60
2018-10-03T06:52:09.333Z,12.60
2018-10-03T06:54:36.901Z,12.70
2018-10-03T06:57:04.547Z,12.70
2018-10-03T06:59:32.091Z,12.80
2018-10-03T07:02:01.076Z,12.80
2018-10-03T07:04:28.654Z,12.90
2018-10-03T07:06:56.885Z,12.90
2018-10-03T07:09:24.466Z,12.90
2018-10-03T07:11:52.030Z,12.90
2018-10-03T07:14:19.629Z,13.00
2018-10-03T07:16:50.155Z,13.00
2018-10-03T07:19:18.181Z,13.10
2018-10-03T07:21:45.885Z,13.10
2018-10-03T07:24:13.445Z,13.30
2018-10-03T07:26:41.102Z,13.40
2018-10-03T07:29:11.025Z,13.50
2018-10-03T07:31:39.134Z,13.50
2018-10-03T07:34:07.199Z,13.50
2018-10-03T07:36:34.802Z,13.50
2018-10-03T07:39:03.005Z,13.50
2018-10-03T07:41:30.705Z,13.50
2018-10-03T07:43:58.282Z,13.40
2018-10-03T07:46:26.175Z,13.60
2018-10-03T07:48:53.721Z,13.70
2018-10-03T07:51:21.302Z,13.90
2018-10-03T07:53:49.148Z,13.80
2018-10-03T07:56:16.899Z,13.80
2018-10-03T07:58:44.654Z,13.80
2018-10-03T08:01:12.269Z,13.80
2018-10-03T08:03:39.828Z,13.90
2018-10-03T08:06:07.401Z,13.90
2018-10-03T08:08:35.089Z,13.90
2018-10-03T08:11:02.649Z,13.90
2018-10-03T08:13:30.213Z,13.90
2018-10-03T08:15:59.386Z,13.90
2018-10-03T08:18:27.294Z,13.90
2018-10-03T08:20:54.898Z,13.90
2018-10-03T08:23:22.945Z,13.90
2018-10-03T08:25:50.502Z,13.90
2018-10-03T08:28:18.545Z,14.00
2018-10-03T08:30:46.245Z,14.00
2018-10-03T08:33:13.817Z,14.10
2018-10-03T08:35:41.349Z,14.10
2018-10-03T08:38:08.934Z,14.00
2018-10-03T08:40:36.485Z,14.10
2018-10-03T08:43:04.046Z,14.00
2018-10-03T08:45:31.606Z,14.10
2018-10-03T08:47:59.290Z,14.10
2018-10-03T08:50:26.879Z,14.20
2018-10-03T08:52:54.468Z,14.10
2018-10-03T08:55:22.002Z,14.20
2018-10-03T08:57:49.560Z,14.30
2018-10-03T09:00:17.093Z,14.40
2018-10-03T09:02:44.805Z,14.40
2018-10-03T09:05:13.029Z,14.40
2018-10-03T09:07:40.593Z,14.20
2018-10-03T09:10:08.297Z,14.20
2018-10-03T09:12:50.612Z,14.30
2018-10-03T09:15:18.147Z,14.40
2018-10-03T09:17:45.828Z,14.60
2018-10-03T09:20:13.894Z,14.60
2018-10-03T09:22:41.524Z,14.70
2018-10-03T09:25:09.074Z,14.70
2018-10-03T09:27:36.652Z,15.00
2018-10-03T09:30:04.253Z,15.10
2018-10-03T09:32:32.379Z,15.10
2018-10-03T09:34:59.953Z,15.20
2018-10-03T09:37:27.710Z,15.30
2018-10-03T09:39:57.182Z,15.30
2018-10-03T09:42:24.738Z,15.30
2018-10-03T09:44:52.432Z,15.10
2018-10-03T09:47:19.993Z,15.20
2018-10-03T09:49:49.516Z,15.30
2018-10-03T09:52:17.089Z,15.50
2018-10-03T09:54:44.717Z,15.40
2018-10-03T09:57:12.400Z,15.50
2018-10-03T09:59:39.965Z,15.30
2018-10-03T10:02:07.525Z,15.30
2018-10-03T10:04:35.881Z,15.50
2018-10-03T10:07:03.417Z,15.40
2018-10-03T10:09:30.976Z,15.50
2018-10-03T10:11:58.517Z,15.50
2018-10-03T10:14:36.485Z,15.50
2018-10-03T10:17:04.281Z,15.50
2018-10-03T10:19:45.666Z,15.70
2018-10-03T10:22:13.309Z,15.70
2018-10-03T10:24:41.729Z,15.80
2018-10-03T10:27:09.289Z,15.80
2018-10-03T10:29:36.971Z,15.80
2018-10-03T10:32:04.536Z,15.70
2018-10-03T10:34:32.346Z,15.70
2018-10-03T10:36:59.936Z,15.70
2018-10-03T10:39:27.497Z,15.60
2018-10-03T10:41:55.033Z,15.70
2018-10-03T10:44:22.773Z,15.80
2018-10-03T10:46:50.817Z,15.80
2018-10-03T10:49:18.405Z,16.00
2018-10-03T10:51:46.348Z,16.10
2018-10-03T10:54:13.852Z,16.40
2018-10-03T10:56:41.571Z,16.40
2018-10-03T10:59:09.146Z,16.40
2018-10-03T11:01:36.809Z,16.30
2018-10-03T11:04:04.466Z,16.30
2018-10-03T11:06:32.492Z,16.40
2018-10-03T11:09:00.177Z,16.20
2018-10-03T11:11:27.744Z,16.20
2018-10-03T11:13:55.352Z,16.00
2018-10-03T11:16:22.946Z,15.80
2018-10-03T11:18:50.482Z,15.70
2018-10-03T11:21:18.121Z,15.60
2018-10-03T11:23:46.153Z,15.80
2018-10-03T11:26:13.646Z,15.90
2018-10-03T11:28:41.228Z,16.10
2018-10-03T11:31:08.781Z,16.30
2018-10-03T11:33:36.308Z,16.40
2018-10-03T11:36:03.885Z,16.40
2018-10-03T11:38:31.493Z,16.70
2018-10-03T11:40:59.053Z,16.60
2018-10-03T11:43:26.616Z,16.40
2018-10-03T11:45:54.252Z,16.30
2018-10-03T11:48:21.890Z,16.50
2018-10-03T11:50:49.459Z,16.60
2018-10-03T11:53:16.998Z,16.40
2018-10-03T11:55:44.590Z,16.30
2018-10-03T11:58:12.146Z,16.10
2018-10-03T12:00:39.920Z,16.00
2018-10-03T12:03:07.584Z,16.10
2018-10-03T12:05:35.133Z,16.20
2018-10-03T12:08:02.678Z,16.10
2018-10-03T12:10:30.201Z,16.40
2018-10-03T12:12:57.766Z,16.70
2018-10-03T12:15:25.297Z,17.40
2018-10-03T12:17:53.186Z,17.70
2018-10-03T12:20:20.753Z,17.70
2018-10-03T12:22:48.316Z,17.40
2018-10-03T12:25:15.876Z,17.10
2018-10-03T12:27:43.488Z,16.70
2018-10-03T12:30:11.073Z,16.60
2018-10-03T12:32:38.609Z,16.60
2018-10-03T12:35:06.318Z,16.50
2018-10-03T12:37:34.234Z,16.40
2018-10-03T12:40:01.865Z,16.30
2018-10-03T12:42:29.474Z,16.50
2018-10-03T12:44:57.084Z,16.60
2018-10-03T12:47:24.681Z,16.60
2018-10-03T12:49:52.227Z,17.00
2018-10-03T12:52:19.770Z,17.40
2018-10-03T12:54:47.754Z,17.50
2018-10-03T12:57:15.267Z,17.60
2018-10-03T12:59:42.934Z,17.50
2018-10-03T13:02:10.473Z,17.20
2018-10-03T13:04:38.377Z,17.10
2018-10-03T13:07:07.877Z,17.20
2018-10-03T13:09:35.720Z,16.90
2018-10-03T13:12:03.293Z,16.60
2018-10-03T13:14:31.058Z,16.50
2018-10-03T13:16:58.605Z,16.40
2018-10-03T13:19:26.552Z,16.60
2018-10-03T13:21:54.138Z,16.80
2018-10-03T13:24:22.092Z,17.10
2018-10-03T13:26:49.669Z,17.50
2018-10-03T13:29:17.236Z,17.90
2018-10-03T13:31:45.219Z,17.70
2018-10-03T13:34:13.277Z,17.50
2018-10-03T13:36:40.814Z,17.20
2018-10-03T13:39:09.076Z,16.80
2018-10-03T13:41:37.348Z,16.60
2018-10-03T13:44:08.837Z,16.60
2018-10-03T13:46:36.393Z,16.50
2018-10-03T13:49:04.278Z,16.60
2018-10-03T13:51:31.835Z,16.90
2018-10-03T13:53:59.946Z,17.60
2018-10-03T13:56:27.549Z,18.10
2018-10-03T13:58:55.221Z,18.20
2018-10-03T14:01:22.765Z,18.20
2018-10-03T14:03:50.450Z,18.10
2018-10-03T14:06:17.989Z,17.90
2018-10-03T14:08:45.541Z,17.70
2018-10-03T14:11:13.130Z,17.60
2018-10-03T14:13:40.660Z,18.40
2018-10-03T14:16:08.602Z,19.10
2018-10-03T14:18:36.249Z,18.70
2018-10-03T14:21:03.925Z,18.30
2018-10-03T14:23:31.483Z,18.00
2018-10-03T14:25:59.073Z,17.70
2018-10-03T14:28:26.695Z,17.70
2018-10-03T14:30:54.225Z,17.60
2018-10-03T14:33:21.889Z,17.50
2018-10-03T14:35:49.517Z,17.70
2018-10-03T14:38:17.097Z,18.60
2018-10-03T14:40:45.053Z,18.90
2018-10-03T14:43:12.976Z,18.90
2018-10-03T14:45:40.628Z,19.00
2018-10-03T14:48:08.546Z,19.30
2018-10-03T14:50:36.093Z,19.30
2018-10-03T14:53:04.254Z,18.90
2018-10-03T14:55:31.865Z,18.30
2018-10-03T14:57:59.397Z,17.80
2018-10-03T15:00:28.954Z,17.60
2018-10-03T15:02:56.506Z,17.90
2018-10-03T15:05:24.137Z,18.00
2018-10-03T15:07:51.686Z,17.80
2018-10-03T15:10:19.628Z,17.70
2018-10-03T15:12:47.427Z,17.60
2018-10-03T15:15:14.962Z,17.60
2018-10-03T15:17:42.585Z,17.70
2018-10-03T15:21:13.779Z,17.80
2018-10-03T15:23:41.370Z,17.70
2018-10-03T15:26:09.195Z,18.00
2018-10-03T15:28:36.857Z,18.00
2018-10-03T15:31:04.549Z,18.00
2018-10-03T15:33:32.169Z,18.00
2018-10-03T15:35:59.825Z,18.20
2018-10-03T15:38:27.457Z,18.50
2018-10-03T15:40:55.249Z,18.40
2018-10-03T15:43:22.922Z,18.30
2018-10-03T15:45:50.782Z,18.20
2018-10-03T15:48:19.466Z,17.70
2018-10-03T15:50:47.065Z,17.50
2018-10-03T15:53:14.759Z,17.80
2018-10-03T15:55:42.411Z,18.10
2018-10-03T15:58:10.060Z,18.50
2018-10-03T16:00:37.745Z,18.40
2018-10-03T16:03:05.437Z,18.20
2018-10-03T16:05:33.193Z,18.20
2018-10-03T16:08:00.841Z,18.10
2018-10-03T16:10:28.521Z,17.80
2018-10-03T16:12:56.465Z,17.60
2018-10-03T16:15:24.287Z,17.50
2018-10-03T16:17:52.701Z,17.40
2018-10-03T16:20:20.372Z,17.30
2018-10-03T16:22:48.078Z,17.10
2018-10-03T16:25:16.062Z,17.00
2018-10-03T16:27:43.721Z,17.10
2018-10-03T16:30:11.385Z,17.10
2018-10-03T16:32:39.690Z,16.80
2018-10-03T16:35:07.607Z,16.60
2018-10-03T16:37:35.261Z,16.60
2018-10-03T16:40:02.945Z,16.60
2018-10-03T16:42:30.695Z,16.30
2018-10-03T16:44:58.614Z,16.20
2018-10-03T16:47:26.738Z,16.10
2018-10-03T16:49:55.053Z,16.10
2018-10-03T16:52:22.834Z,16.00
2018-10-03T16:54:50.493Z,15.80
2018-10-03T16:57:18.374Z,15.70
2018-10-03T16:59:46.137Z,15.70
2018-10-03T17:02:13.902Z,15.70
2018-10-03T17:04:41.539Z,15.60
2018-10-03T17:07:09.258Z,15.40
2018-10-03T17:09:36.914Z,15.30
2018-10-03T17:12:07.569Z,15.10
2018-10-03T17:14:38.984Z,15.10
2018-10-03T17:17:07.301Z,15.00
2018-10-03T17:19:35.257Z,14.90
2018-10-03T17:22:03.413Z,14.90
2018-10-03T17:24:32.562Z,14.80
2018-10-03T17:27:00.454Z,14.70
2018-10-03T17:29:28.122Z,14.70
2018-10-03T17:31:56.506Z,14.60
2018-10-03T17:34:24.274Z,14.50
2018-10-03T17:36:54.076Z,14.40
2018-10-03T17:39:22.877Z,14.50
2018-10-03T17:41:51.804Z,14.30
2018-10-03T17:44:20.274Z,14.30
2018-10-03T17:46:49.685Z,14.20
2018-10-03T17:49:17.897Z,14.10
2018-10-03T17:51:45.762Z,14.10
2018-10-03T17:54:13.683Z,14.00
2018-10-03T17:56:41.773Z,14.00
2018-10-03T17:59:10.782Z,13.90
2018-10-03T18:01:42.361Z,13.80
2018-10-03T18:04:10.186Z,13.80
2018-10-03T18:06:37.890Z,13.80
2018-10-03T18:09:08.735Z,13.70
2018-10-03T18:11:36.466Z,13.70
2018-10-03T18:14:04.178Z,13.60
2018-10-03T18:16:31.826Z,13.60
2018-10-03T18:18:59.602Z,13.50
2018-10-03T18:21:27.269Z,13.40
2018-10-03T18:23:54.967Z,13.40
2018-10-03T18:26:22.629Z,13.30
2018-10-03T18:28:50.281Z,13.20
2018-10-03T18:31:18.012Z,13.30
2018-10-03T18:33:45.629Z,13.20
2018-10-03T18:36:13.290Z,13.20
2018-10-03T18:38:41.102Z,13.10
2018-10-03T18:41:08.957Z,13.10
2018-10-03T18:43:37.009Z,13.10
2018-10-03T18:46:04.688Z,13.00
2018-10-03T18:48:32.406Z,12.90
2018-10-03T18:51:00.078Z,12.90
2018-10-03T18:53:27.714Z,12.80
2018-10-03T18:55:55.421Z,12.80
2018-10-03T18:58:23.083Z,12.80
2018-10-03T19:00:51.593Z,12.80
2018-10-03T19:03:19.227Z,12.80
2018-10-03T19:05:46.920Z,12.80
2018-10-03T19:08:15.033Z,12.70
2018-10-03T19:10:42.765Z,12.60
2018-10-03T19:13:10.668Z,12.50
2018-10-03T19:15:38.376Z,12.40
2018-10-03T19:18:06.065Z,12.30
2018-10-03T19:20:34.077Z,12.40
2018-10-03T19:23:01.866Z,12.40
2018-10-03T19:25:29.555Z,12.40
2018-10-03T19:27:58.099Z,12.40
2018-10-03T19:30:27.374Z,12.40
2018-10-03T19:32:55.046Z,12.30
2018-10-03T19:35:22.757Z,12.20
2018-10-03T19:37:50.434Z,12.20
2018-10-03T19:40:18.097Z,12.00
2018-10-03T19:42:45.832Z,11.90
2018-10-03T19:45:13.978Z,11.90
2018-10-03T19:47:42.252Z,11.90
2018-10-03T19:50:09.878Z,11.90
2018-10-03T19:52:38.862Z,11.90
2018-10-03T19:55:06.540Z,11.90
2018-10-03T19:57:34.325Z,11.70
2018-10-03T20:00:02.473Z,11.80
2018-10-03T20:02:30.158Z,11.70
2018-10-03T20:04:57.814Z,11.70
2018-10-03T20:07:25.701Z,11.70
2018-10-03T20:09:53.754Z,11.60
2018-10-03T20:12:21.937Z,11.60
2018-10-03T20:14:49.981Z,11.60
2018-10-03T20:17:17.719Z,11.60
2018-10-03T20:19:45.385Z,11.40
2018-10-03T20:22:13.221Z,11.40
2018-10-03T20:24:40.912Z,11.30
2018-10-03T20:27:11.375Z,11.20
2018-10-03T20:29:39.774Z,11.10
2018-10-03T20:32:07.713Z,11.10
2018-10-03T20:34:36.097Z,11.10
2018-10-03T20:37:03.759Z,11.20
2018-10-03T20:39:31.516Z,11.20
2018-10-03T20:41:59.178Z,11.20
2018-10-03T20:44:27.208Z,11.20
2018-10-03T20:46:55.005Z,11.10
2018-10-03T20:49:22.682Z,11.10
2018-10-03T20:51:50.457Z,11.10
2018-10-03T20:54:18.116Z,11.00
2018-10-03T20:56:45.781Z,10.90
2018-10-03T20:59:13.453Z,10.80
2018-10-03T21:01:41.149Z,10.70
2018-10-03T21:04:08.785Z,10.70
2018-10-03T21:06:36.461Z,10.60
2018-10-03T21:09:06.368Z,10.60
2018-10-03T21:11:34.309Z,10.50
2018-10-03T21:14:01.943Z,10.50
2018-10-03T21:16:29.678Z,10.50
2018-10-03T21:18:57.302Z,10.60
2018-10-03T21:21:25.022Z,10.70
2018-10-03T21:23:52.658Z,10.60
2018-10-03T21:26:20.383Z,10.60
2018-10-03T21:28:48.033Z,10.60
2018-10-03T21:31:16.021Z,10.60
2018-10-03T21:33:43.889Z,10.60
2018-10-03T21:36:11.665Z,10.60
2018-10-03T21:38:39.287Z,10.70
2018-10-03T21:41:07.394Z,10.60
2018-10-03T21:43:35.077Z,10.70
2018-10-03T21:46:02.893Z,10.70
2018-10-03T21:48:30.534Z,10.80
2018-10-03T21:50:58.194Z,10.90
2018-10-03T21:53:25.845Z,10.90
2018-10-03T21:56:10.020Z,10.90
2018-10-03T21:58:37.585Z,10.80
2018-10-03T22:01:05.304Z,10.80
2018-10-03T22:03:32.833Z,10.80
2018-10-03T22:06:00.764Z,10.70
2018-10-03T22:08:28.321Z,10.60
2018-10-03T22:10:56.105Z,10.50
2018-10-03T22:13:23.680Z,10.50
2018-10-03T22:15:51.241Z,10.50
2018-10-03T22:18:18.913Z,10.40
2018-10-03T22:20:46.449Z,10.40
2018-10-03T22:23:14.010Z,10.20
2018-10-03T22:25:41.554Z,10.20
2018-10-03T22:28:09.237Z,10.10
2018-10-03T22:30:36.782Z,10.00
2018-10-03T22:33:04.434Z,10.00
2018-10-03T22:35:31.997Z,9.90
2018-10-03T22:37:59.668Z,9.80
2018-10-03T22:40:27.209Z,9.80
2018-10-03T22:42:54.921Z,9.80
2018-10-03T22:45:22.509Z,9.70
2018-10-03T22:47:50.071Z,9.70
2018-10-03T22:50:17.687Z,9.60
2018-10-03T22:52:45.249Z,9.60
2018-10-03T22:55:12.877Z,9.60
2018-10-03T22:57:40.483Z,9.50
2018-10-03T23:00:08.617Z,9.50
2018-10-03T23:02:36.245Z,9.50
2018-10-03T23:05:03.917Z,9.50
2018-10-03T23:07:31.522Z,9.40
2018-10-03T23:09:59.081Z,9.40
2018-10-03T23:12:26.645Z,9.30
2018-10-03T23:14:54.213Z,9.30
2018-10-03T23:17:21.917Z,9.30
2018-10-03T23:19:49.496Z,9.30
2018-10-03T23:22:17.945Z,9.20
2018-10-03T23:24:45.585Z,9.30
2018-10-03T23:27:16.896Z,9.30
2018-10-03T23:29:44.793Z,9.30
2018-10-03T23:32:12.448Z,9.40
2018-10-03T23:34:40.029Z,9.30
2018-10-03T23:37:07.693Z,9.30
2018-10-03T23:39:35.249Z,9.30
2018-10-03T23:42:02.854Z,9.30
2018-10-03T23:44:30.367Z,9.20
2018-10-03T23:46:58.205Z,9.20
2018-10-03T23:49:25.789Z,9.20
2018-10-03T23:51:53.337Z,9.20
2018-10-03T23:54:21.141Z,9.00
2018-10-03T23:56:48.788Z,9.00
2018-10-03T23:59:16.552Z,9.00
